Kliftrans — PCDB — position and weather

sailwx.info

Track history (hours):
 
Tides and Currents Weather Stations Pressure Air Temp Water Temp Dewpoint Dewpoint Depression Visibility Wind Speed Wind Dir Waves Ship Positions

Kliftrans

Last reported at 2015-Feb-28 14:03 UTC. Time now 2015-Mar-04 04:18 UTC.
Position N 50°36' E 000°17'.

Length 88 m; draft 4.8 m.

Type: Cargo ship. MMSI: 245132000.

Date/timePositionNaut miles runAvg speedWind from/ knotsBaromVisibWave heightAir tempDewpointWater temp
2015-Feb-28 14:03N 50°36' E 000°17'10 6.3
2015-Feb-28 12:31N 50°38' E 000°32'7 7.3
2015-Feb-28 11:33N 50°42' E 000°41'8 7.5
2015-Feb-28 10:33N 50°46' E 000°51'15 7.5
2015-Feb-28 08:34N 50°55' E 001°09'7 7.3
2015-Feb-28 07:33N 50°60' E 001°18'7 7.2
2015-Feb-28 06:34N 51°04' E 001°27'8 8.3
2015-Feb-28 05:33N 51°09' E 001°38'9 9.4
2015-Feb-28 04:34N 51°16' E 001°49'1010.3
2015-Feb-28 03:33N 51°24' E 001°58'1110.6
2015-Feb-28 02:33N 51°32' E 002°09'87 9.3
2015-Feb-27 17:14N 52°31' E 003°52'7 9.8
2015-Feb-27 16:33N 52°31' E 004°03'9 9.4
2015-Feb-27 15:33N 52°30' E 004°19'9 9.3
2015-Feb-27 14:34N 52°28' E 004°33'5 4.9
2015-Feb-27 13:33N 52°27' E 004°41'7 7.0
2015-Feb-27 12:33N 52°24' E 004°52'0 0.0
2015-Feb-27 11:33N 52°24' E 004°52'0 0.0
2015-Feb-27 10:33N 52°24' E 004°52'0 0.0
2015-Feb-27 09:33N 52°24' E 004°52'0 0.0
2015-Feb-27 08:33N 52°24' E 004°52'0 0.0
2015-Feb-27 07:33N 52°24' E 004°52'0 0.0
2015-Feb-27 06:33N 52°24' E 004°52'0 0.0
2015-Feb-27 05:33N 52°24' E 004°52'0 0.0
2015-Feb-27 04:33N 52°24' E 004°52'0 0.0
2015-Feb-27 03:33N 52°24' E 004°52'0 0.0
2015-Feb-27 02:33N 52°24' E 004°52'0 0.0
2015-Feb-27 01:33N 52°24' E 004°52'0 0.4
2015-Feb-27 00:33N 52°24' E 004°52'0 0.0
2015-Feb-26 23:33N 52°24' E 004°52'0 0.0
2015-Feb-26 22:33N 52°24' E 004°52'0 0.0
2015-Feb-26 21:33N 52°24' E 004°52'0 0.0
2015-Feb-26 20:33N 52°24' E 004°52'0 0.0
2015-Feb-26 19:33N 52°24' E 004°52'0 0.0
2015-Feb-26 18:33N 52°24' E 004°52'0 0.0
2015-Feb-26 17:33N 52°24' E 004°52'0 0.0
2015-Feb-26 16:33N 52°24' E 004°52'0 0.0
2015-Feb-26 15:33N 52°24' E 004°52'0 0.0
2015-Feb-26 14:33N 52°24' E 004°52'0 0.0
2015-Feb-26 13:33N 52°24' E 004°52'0 0.0
2015-Feb-26 12:33N 52°24' E 004°52'0 0.0
2015-Feb-26 11:33N 52°24' E 004°52'0 0.0
2015-Feb-26 10:32N 52°24' E 004°52'0 0.0
2015-Feb-26 09:32N 52°24' E 004°52'0 0.0
2015-Feb-26 08:32N 52°24' E 004°52'0 0.0
2015-Feb-26 07:32N 52°24' E 004°52'0 0.0
2015-Feb-26 06:32N 52°24' E 004°52'0 0.0
2015-Feb-26 05:32N 52°24' E 004°52'0 0.0
2015-Feb-26 04:32N 52°24' E 004°52'2 2.5
2015-Feb-26 03:34N 52°25' E 004°49'8 7.8
2015-Feb-26 02:33N 52°28' E 004°37'5 5.4
2015-Feb-26 01:33N 52°28' E 004°28'5 5.3
2015-Feb-26 00:33N 52°25' E 004°21'5 5.3
2015-Feb-25 23:33N 52°21' E 004°17'1110.7
2015-Feb-25 22:33N 52°11' E 004°10'9 9.1
2015-Feb-25 21:33N 52°03' E 004°04'6 5.8
2015-Feb-25 20:34N 51°58' E 004°09'8 8.0
2015-Feb-25 19:34N 51°54' E 004°20'3 2.9
2015-Feb-25 18:31N 51°54' E 004°25'0 0.0
2015-Feb-25 17:31N 51°54' E 004°25'0 0.1
2015-Feb-25 16:31N 51°54' E 004°25'0 0.0
2015-Feb-25 15:31N 51°54' E 004°25'0 0.0
2015-Feb-25 14:31N 51°54' E 004°25'0 0.0
2015-Feb-25 13:31N 51°54' E 004°25'0 0.0
2015-Feb-25 12:31N 51°54' E 004°25'1 1.0
2015-Feb-25 11:33N 51°54' E 004°24'5 5.1
2015-Feb-25 10:33N 51°54' E 004°16'6 6.0
2015-Feb-25 09:33N 51°58' E 004°08'8 8.2
2015-Feb-25 08:33N 52°01' E 003°55'9 8.3
2015-Feb-25 07:28N 52°05' E 003°42'3 1.4
2015-Feb-25 05:06N 52°07' E 003°39'0 0.0
2015-Feb-24 21:17N 52°07' E 003°39'0 0.0
2015-Feb-24 20:26N 52°08' E 003°39'0 0.0
2015-Feb-24 16:29N 52°07' E 003°39'0 0.1
2015-Feb-24 15:31N 52°07' E 003°39'76 8.5
2015-Feb-24 06:33N 52°48' E 001°53'7 7.2
2015-Feb-24 05:33N 52°53' E 001°44'7 7.0
2015-Feb-24 04:34N 52°56' E 001°34'7 7.5
2015-Feb-24 03:33N 53°00' E 001°23'8 8.2
2015-Feb-24 02:34N 53°04' E 001°12'29 8.3
2015-Feb-23 23:08N 53°21' E 000°33'5 7.5
2015-Feb-23 22:31N 53°25' E 000°28'7 7.7
2015-Feb-23 21:33N 53°30' E 000°19'8 7.7
2015-Feb-23 20:33N 53°33' E 000°07'7 7.5
2015-Feb-23 19:33N 53°36' W 000°04'5 4.5
2015-Feb-23 18:34N 53°38' W 000°11'0 0.2
2015-Feb-23 17:32N 53°38' W 000°12'0 0.0
2015-Feb-23 16:32N 53°38' W 000°12'0 0.0
2015-Feb-23 15:32N 53°38' W 000°12'0 0.0
2015-Feb-23 14:32N 53°38' W 000°12'0 0.0
2015-Feb-23 13:32N 53°38' W 000°12'0 0.0
2015-Feb-23 12:32N 53°38' W 000°12'0 0.0
2015-Feb-23 11:32N 53°38' W 000°12'0 0.0
2015-Feb-23 10:32N 53°38' W 000°12'0 0.0
2015-Feb-23 09:32N 53°38' W 000°12'0 0.0
2015-Feb-23 08:32N 53°38' W 000°12'0 0.0
2015-Feb-23 07:32N 53°38' W 000°12'0 0.0
2015-Feb-23 06:32N 53°38' W 000°12'0 0.0
2015-Feb-23 05:32N 53°38' W 000°12'0 0.0
2015-Feb-23 04:32N 53°38' W 000°12'0 0.0
2015-Feb-23 03:32N 53°38' W 000°12'0 0.0
2015-Feb-23 02:32N 53°38' W 000°12'0 0.0
2015-Feb-23 01:32N 53°38' W 000°12'0 0.0
2015-Feb-23 00:32N 53°38' W 000°12'0 0.0
2015-Feb-22 23:32N 53°38' W 000°12'0 0.0
2015-Feb-22 22:32N 53°38' W 000°12'0 0.0
2015-Feb-22 21:32N 53°38' W 000°12'0 0.0
2015-Feb-22 20:32N 53°38' W 000°12'0 0.0
2015-Feb-22 19:32N 53°38' W 000°12'0 0.0
2015-Feb-22 18:32N 53°38' W 000°12'0 0.0
2015-Feb-22 17:32N 53°38' W 000°12'0 0.0
2015-Feb-22 16:32N 53°38' W 000°12'0 0.0
2015-Feb-22 15:31N 53°38' W 000°12'0 0.0
2015-Feb-22 14:31N 53°38' W 000°12'0 0.0
2015-Feb-22 13:31N 53°38' W 000°12'0 0.0
2015-Feb-22 12:31N 53°38' W 000°12'0 0.0
2015-Feb-22 11:31N 53°38' W 000°12'0 0.0
2015-Feb-22 10:31N 53°38' W 000°12'0 0.0
2015-Feb-22 09:31N 53°38' W 000°12'0 0.0
2015-Feb-22 08:31N 53°38' W 000°12'0 0.0
2015-Feb-22 07:28N 53°38' W 000°12'0 0.0
2015-Feb-22 06:31N 53°38' W 000°12'0 0.0
2015-Feb-22 05:31N 53°38' W 000°12'0 0.0
2015-Feb-22 04:31N 53°38' W 000°12'0 0.0
2015-Feb-22 03:31N 53°38' W 000°12'0 0.0
2015-Feb-22 02:31N 53°38' W 000°12'0 0.0
2015-Feb-22 01:31N 53°38' W 000°12'0 0.0
2015-Feb-22 00:31N 53°38' W 000°12'0 0.0
2015-Feb-21 23:31N 53°38' W 000°12'0 0.0
2015-Feb-21 22:31N 53°38' W 000°12'0 0.0
2015-Feb-21 21:31N 53°38' W 000°12'0 0.0
2015-Feb-21 20:31N 53°38' W 000°12'0 0.0
2015-Feb-21 19:31N 53°38' W 000°12'0 0.0
2015-Feb-21 18:31N 53°38' W 000°12'0 0.0
2015-Feb-21 17:31N 53°38' W 000°12'0 0.0
2015-Feb-21 16:31N 53°38' W 000°12'0 0.0
2015-Feb-21 15:31N 53°38' W 000°12'0 0.0
2015-Feb-21 14:31N 53°38' W 000°12'0 0.0
2015-Feb-21 13:31N 53°38' W 000°12'0 0.0
2015-Feb-21 12:31N 53°38' W 000°12'0 0.0
2015-Feb-21 11:31N 53°38' W 000°12'0 0.0
2015-Feb-21 10:31N 53°38' W 000°12'0 0.0
2015-Feb-21 09:30N 53°38' W 000°12'0 0.0
2015-Feb-21 08:27N 53°38' W 000°12'0 0.0
2015-Feb-21 07:33N 53°38' W 000°12'0 0.0
2015-Feb-21 06:33N 53°38' W 000°12'0 0.0
2015-Feb-21 05:33N 53°38' W 000°12'0 0.0
2015-Feb-21 04:33N 53°38' W 000°12'0 0.0
2015-Feb-21 03:33N 53°38' W 000°12'0 0.0
2015-Feb-21 02:33N 53°38' W 000°12'0 0.0
2015-Feb-21 01:33N 53°38' W 000°12'0 0.0
2015-Feb-21 00:33N 53°38' W 000°12'0 0.3
2015-Feb-20 23:34N 53°38' W 000°11'0 0.4
2015-Feb-20 22:34N 53°38' W 000°11'5 5.0
2015-Feb-20 21:34N 53°43' W 000°15'8 8.2
2015-Feb-20 20:34N 53°42' W 000°28'10 1.4
2015-Feb-20 13:18N 53°36' W 000°43'0 0.0
2015-Feb-20 08:33N 53°36' W 000°43'0 0.0
2015-Feb-20 07:06N 53°36' W 000°43'0 0.0
2015-Feb-20 05:18N 53°36' W 000°43'0 0.0
2015-Feb-20 04:06N 53°36' W 000°43'0 0.0
2015-Feb-20 02:18N 53°36' W 000°43'0 0.0
2015-Feb-20 01:06N 53°36' W 000°43'0 0.0
2015-Feb-19 23:18N 53°36' W 000°43'0 0.0
2015-Feb-19 22:21N 53°36' W 000°43'0 0.0
2015-Feb-19 19:11N 53°36' W 000°43'0 0.0
2015-Feb-19 18:06N 53°36' W 000°43'0 0.0
2015-Feb-18 17:23N 53°36' W 000°43'  
Track history (hours):
 
Tides and Currents Weather Stations Pressure Air Temp Water Temp Dewpoint Dewpoint Depression Visibility Wind Speed Wind Dir Waves Ship Positions

Kliftrans

Last reported at 2015-Feb-28 14:03 UTC. Time now 2015-Mar-04 04:18 UTC.
Position N 50°36' E 000°17'.

Length 88 m; draft 4.8 m.

Type: Cargo ship. MMSI: 245132000.

Date/timePositionNaut miles runAvg speedWind from/ knotsBaromVisibWave heightAir tempDewpointWater temp
2015-Feb-28 14:03N 50°36' E 000°17'10 6.3
2015-Feb-28 12:31N 50°38' E 000°32'7 7.3
2015-Feb-28 11:33N 50°42' E 000°41'8 7.5
2015-Feb-28 10:33N 50°46' E 000°51'15 7.5
2015-Feb-28 08:34N 50°55' E 001°09'7 7.3
2015-Feb-28 07:33N 50°60' E 001°18'7 7.2
2015-Feb-28 06:34N 51°04' E 001°27'8 8.3
2015-Feb-28 05:33N 51°09' E 001°38'9 9.4
2015-Feb-28 04:34N 51°16' E 001°49'1010.3
2015-Feb-28 03:33N 51°24' E 001°58'1110.6
2015-Feb-28 02:33N 51°32' E 002°09'87 9.3
2015-Feb-27 17:14N 52°31' E 003°52'7 9.8
2015-Feb-27 16:33N 52°31' E 004°03'9 9.4
2015-Feb-27 15:33N 52°30' E 004°19'9 9.3
2015-Feb-27 14:34N 52°28' E 004°33'5 4.9
2015-Feb-27 13:33N 52°27' E 004°41'7 7.0
2015-Feb-27 12:33N 52°24' E 004°52'0 0.0
2015-Feb-27 11:33N 52°24' E 004°52'0 0.0
2015-Feb-27 10:33N 52°24' E 004°52'0 0.0
2015-Feb-27 09:33N 52°24' E 004°52'0 0.0
2015-Feb-27 08:33N 52°24' E 004°52'0 0.0
2015-Feb-27 07:33N 52°24' E 004°52'0 0.0
2015-Feb-27 06:33N 52°24' E 004°52'0 0.0
2015-Feb-27 05:33N 52°24' E 004°52'0 0.0
2015-Feb-27 04:33N 52°24' E 004°52'0 0.0
2015-Feb-27 03:33N 52°24' E 004°52'0 0.0
2015-Feb-27 02:33N 52°24' E 004°52'0 0.0
2015-Feb-27 01:33N 52°24' E 004°52'0 0.4
2015-Feb-27 00:33N 52°24' E 004°52'0 0.0
2015-Feb-26 23:33N 52°24' E 004°52'0 0.0
2015-Feb-26 22:33N 52°24' E 004°52'0 0.0
2015-Feb-26 21:33N 52°24' E 004°52'0 0.0
2015-Feb-26 20:33N 52°24' E 004°52'0 0.0
2015-Feb-26 19:33N 52°24' E 004°52'0 0.0
2015-Feb-26 18:33N 52°24' E 004°52'0 0.0
2015-Feb-26 17:33N 52°24' E 004°52'0 0.0
2015-Feb-26 16:33N 52°24' E 004°52'0 0.0
2015-Feb-26 15:33N 52°24' E 004°52'0 0.0
2015-Feb-26 14:33N 52°24' E 004°52'0 0.0
2015-Feb-26 13:33N 52°24' E 004°52'0 0.0
2015-Feb-26 12:33N 52°24' E 004°52'0 0.0
2015-Feb-26 11:33N 52°24' E 004°52'0 0.0
2015-Feb-26 10:32N 52°24' E 004°52'0 0.0
2015-Feb-26 09:32N 52°24' E 004°52'0 0.0
2015-Feb-26 08:32N 52°24' E 004°52'0 0.0
2015-Feb-26 07:32N 52°24' E 004°52'0 0.0
2015-Feb-26 06:32N 52°24' E 004°52'0 0.0
2015-Feb-26 05:32N 52°24' E 004°52'0 0.0
2015-Feb-26 04:32N 52°24' E 004°52'2 2.5
2015-Feb-26 03:34N 52°25' E 004°49'8 7.8
2015-Feb-26 02:33N 52°28' E 004°37'5 5.4
2015-Feb-26 01:33N 52°28' E 004°28'5 5.3
2015-Feb-26 00:33N 52°25' E 004°21'5 5.3
2015-Feb-25 23:33N 52°21' E 004°17'1110.7
2015-Feb-25 22:33N 52°11' E 004°10'9 9.1
2015-Feb-25 21:33N 52°03' E 004°04'6 5.8
2015-Feb-25 20:34N 51°58' E 004°09'8 8.0
2015-Feb-25 19:34N 51°54' E 004°20'3 2.9
2015-Feb-25 18:31N 51°54' E 004°25'0 0.0
2015-Feb-25 17:31N 51°54' E 004°25'0 0.1
2015-Feb-25 16:31N 51°54' E 004°25'0 0.0
2015-Feb-25 15:31N 51°54' E 004°25'0 0.0
2015-Feb-25 14:31N 51°54' E 004°25'0 0.0
2015-Feb-25 13:31N 51°54' E 004°25'0 0.0
2015-Feb-25 12:31N 51°54' E 004°25'1 1.0
2015-Feb-25 11:33N 51°54' E 004°24'5 5.1
2015-Feb-25 10:33N 51°54' E 004°16'6 6.0
2015-Feb-25 09:33N 51°58' E 004°08'8 8.2
2015-Feb-25 08:33N 52°01' E 003°55'9 8.3
2015-Feb-25 07:28N 52°05' E 003°42'3 1.4
2015-Feb-25 05:06N 52°07' E 003°39'0 0.0
2015-Feb-24 21:17N 52°07' E 003°39'0 0.0
2015-Feb-24 20:26N 52°08' E 003°39'0 0.0
2015-Feb-24 16:29N 52°07' E 003°39'0 0.1
2015-Feb-24 15:31N 52°07' E 003°39'76 8.5
2015-Feb-24 06:33N 52°48' E 001°53'7 7.2
2015-Feb-24 05:33N 52°53' E 001°44'7 7.0
2015-Feb-24 04:34N 52°56' E 001°34'7 7.5
2015-Feb-24 03:33N 53°00' E 001°23'8 8.2
2015-Feb-24 02:34N 53°04' E 001°12'29 8.3
2015-Feb-23 23:08N 53°21' E 000°33'5 7.5
2015-Feb-23 22:31N 53°25' E 000°28'7 7.7
2015-Feb-23 21:33N 53°30' E 000°19'8 7.7
2015-Feb-23 20:33N 53°33' E 000°07'7 7.5
2015-Feb-23 19:33N 53°36' W 000°04'5 4.5
2015-Feb-23 18:34N 53°38' W 000°11'0 0.2
2015-Feb-23 17:32N 53°38' W 000°12'0 0.0
2015-Feb-23 16:32N 53°38' W 000°12'0 0.0
2015-Feb-23 15:32N 53°38' W 000°12'0 0.0
2015-Feb-23 14:32N 53°38' W 000°12'0 0.0
2015-Feb-23 13:32N 53°38' W 000°12'0 0.0
2015-Feb-23 12:32N 53°38' W 000°12'0 0.0
2015-Feb-23 11:32N 53°38' W 000°12'0 0.0
2015-Feb-23 10:32N 53°38' W 000°12'0 0.0
2015-Feb-23 09:32N 53°38' W 000°12'0 0.0
2015-Feb-23 08:32N 53°38' W 000°12'0 0.0
2015-Feb-23 07:32N 53°38' W 000°12'0 0.0
2015-Feb-23 06:32N 53°38' W 000°12'0 0.0
2015-Feb-23 05:32N 53°38' W 000°12'0 0.0
2015-Feb-23 04:32N 53°38' W 000°12'0 0.0
2015-Feb-23 03:32N 53°38' W 000°12'0 0.0
2015-Feb-23 02:32N 53°38' W 000°12'0 0.0
2015-Feb-23 01:32N 53°38' W 000°12'0 0.0
2015-Feb-23 00:32N 53°38' W 000°12'0 0.0
2015-Feb-22 23:32N 53°38' W 000°12'0 0.0
2015-Feb-22 22:32N 53°38' W 000°12'0 0.0
2015-Feb-22 21:32N 53°38' W 000°12'0 0.0
2015-Feb-22 20:32N 53°38' W 000°12'0 0.0
2015-Feb-22 19:32N 53°38' W 000°12'0 0.0
2015-Feb-22 18:32N 53°38' W 000°12'0 0.0
2015-Feb-22 17:32N 53°38' W 000°12'0 0.0
2015-Feb-22 16:32N 53°38' W 000°12'0 0.0
2015-Feb-22 15:31N 53°38' W 000°12'0 0.0
2015-Feb-22 14:31N 53°38' W 000°12'0 0.0
2015-Feb-22 13:31N 53°38' W 000°12'0 0.0
2015-Feb-22 12:31N 53°38' W 000°12'0 0.0
2015-Feb-22 11:31N 53°38' W 000°12'0 0.0
2015-Feb-22 10:31N 53°38' W 000°12'0 0.0
2015-Feb-22 09:31N 53°38' W 000°12'0 0.0
2015-Feb-22 08:31N 53°38' W 000°12'0 0.0
2015-Feb-22 07:28N 53°38' W 000°12'0 0.0
2015-Feb-22 06:31N 53°38' W 000°12'0 0.0
2015-Feb-22 05:31N 53°38' W 000°12'0 0.0
2015-Feb-22 04:31N 53°38' W 000°12'0 0.0
2015-Feb-22 03:31N 53°38' W 000°12'0 0.0
2015-Feb-22 02:31N 53°38' W 000°12'0 0.0
2015-Feb-22 01:31N 53°38' W 000°12'0 0.0
2015-Feb-22 00:31N 53°38' W 000°12'0 0.0
2015-Feb-21 23:31N 53°38' W 000°12'0 0.0
2015-Feb-21 22:31N 53°38' W 000°12'0 0.0
2015-Feb-21 21:31N 53°38' W 000°12'0 0.0
2015-Feb-21 20:31N 53°38' W 000°12'0 0.0
2015-Feb-21 19:31N 53°38' W 000°12'0 0.0
2015-Feb-21 18:31N 53°38' W 000°12'0 0.0
2015-Feb-21 17:31N 53°38' W 000°12'0 0.0
2015-Feb-21 16:31N 53°38' W 000°12'0 0.0
2015-Feb-21 15:31N 53°38' W 000°12'0 0.0
2015-Feb-21 14:31N 53°38' W 000°12'0 0.0
2015-Feb-21 13:31N 53°38' W 000°12'0 0.0
2015-Feb-21 12:31N 53°38' W 000°12'0 0.0
2015-Feb-21 11:31N 53°38' W 000°12'0 0.0
2015-Feb-21 10:31N 53°38' W 000°12'0 0.0
2015-Feb-21 09:30N 53°38' W 000°12'0 0.0
2015-Feb-21 08:27N 53°38' W 000°12'0 0.0
2015-Feb-21 07:33N 53°38' W 000°12'0 0.0
2015-Feb-21 06:33N 53°38' W 000°12'0 0.0
2015-Feb-21 05:33N 53°38' W 000°12'0 0.0
2015-Feb-21 04:33N 53°38' W 000°12'0 0.0
2015-Feb-21 03:33N 53°38' W 000°12'0 0.0
2015-Feb-21 02:33N 53°38' W 000°12'0 0.0
2015-Feb-21 01:33N 53°38' W 000°12'0 0.0
2015-Feb-21 00:33N 53°38' W 000°12'0 0.3
2015-Feb-20 23:34N 53°38' W 000°11'0 0.4
2015-Feb-20 22:34N 53°38' W 000°11'5 5.0
2015-Feb-20 21:34N 53°43' W 000°15'8 8.2
2015-Feb-20 20:34N 53°42' W 000°28'10 1.4
2015-Feb-20 13:18N 53°36' W 000°43'0 0.0
2015-Feb-20 08:33N 53°36' W 000°43'0 0.0
2015-Feb-20 07:06N 53°36' W 000°43'0 0.0
2015-Feb-20 05:18N 53°36' W 000°43'0 0.0
2015-Feb-20 04:06N 53°36' W 000°43'0 0.0
2015-Feb-20 02:18N 53°36' W 000°43'0 0.0
2015-Feb-20 01:06N 53°36' W 000°43'0 0.0
2015-Feb-19 23:18N 53°36' W 000°43'0 0.0
2015-Feb-19 22:21N 53°36' W 000°43'0 0.0
2015-Feb-19 19:11N 53°36' W 000°43'0 0.0
2015-Feb-19 18:06N 53°36' W 000°43'0 0.0
2015-Feb-18 17:23N 53°36' W 000°43'  

Dump ship's entire track history